createdAt,value
2019-04-14T00:00:29.288Z,11.10
2019-04-14T00:03:02.301Z,12.57
2019-04-14T00:05:32.744Z,11.83
2019-04-14T00:08:00.968Z,11.90
2019-04-14T00:10:29.427Z,12.00
2019-04-14T00:12:57.963Z,11.40
2019-04-14T00:15:33.027Z,10.70
2019-04-14T00:17:56.823Z,11.77
2019-04-14T00:20:25.336Z,10.80
2019-04-14T00:22:55.279Z,10.23
2019-04-14T00:25:24.038Z,11.80
2019-04-14T00:27:52.513Z,11.43
2019-04-14T00:30:23.278Z,11.00
2019-04-14T00:33:02.042Z,11.60
2019-04-14T00:35:34.884Z,12.03
2019-04-14T00:38:04.965Z,11.13
2019-04-14T00:40:51.815Z,10.27
2019-04-14T00:43:31.029Z,10.83
2019-04-14T00:46:02.587Z,11.47
2019-04-14T00:48:32.047Z,11.23
2019-04-14T00:51:00.627Z,9.97
2019-04-14T00:53:29.567Z,11.03
2019-04-14T00:55:58.268Z,10.30
2019-04-14T00:58:27.876Z,10.00
2019-04-14T01:00:56.580Z,10.13
2019-04-14T01:03:25.043Z,9.73
2019-04-14T01:05:54.648Z,9.73
2019-04-14T01:08:24.993Z,10.70
2019-04-14T01:10:54.058Z,10.27
2019-04-14T01:13:22.744Z,10.87
2019-04-14T01:15:59.680Z,10.33
2019-04-14T01:18:21.386Z,10.33
2019-04-14T01:20:49.918Z,9.47
2019-04-14T01:23:19.358Z,10.07
2019-04-14T01:25:48.034Z,9.83
2019-04-14T01:28:16.480Z,10.37
2019-04-14T01:30:45.854Z,9.80
2019-04-14T01:33:14.389Z,9.83
2019-04-14T01:35:42.814Z,10.10
2019-04-14T01:38:12.445Z,10.23
2019-04-14T01:40:42.334Z,9.80
2019-04-14T01:43:12.280Z,9.47
2019-04-14T01:45:40.868Z,9.70
2019-04-14T01:48:10.474Z,10.57
2019-04-14T01:50:43.550Z,9.47
2019-04-14T01:53:13.986Z,9.93
2019-04-14T01:55:48.299Z,9.57
2019-04-14T01:58:18.749Z,10.60
2019-04-14T02:00:49.328Z,8.60
2019-04-14T02:03:18.039Z,9.80
2019-04-14T02:05:47.476Z,9.33
2019-04-14T02:08:16.022Z,8.87
2019-04-14T02:10:45.628Z,9.97
2019-04-14T02:13:14.311Z,9.87
2019-04-14T02:15:44.303Z,9.50
2019-04-14T02:18:14.240Z,10.23
2019-04-14T02:20:44.610Z,10.23
2019-04-14T02:23:14.575Z,9.57
2019-04-14T02:25:44.947Z,9.30
2019-04-14T02:28:13.744Z,9.33
2019-04-14T02:30:53.691Z,9.63
2019-04-14T02:33:40.557Z,9.67
2019-04-14T02:36:17.665Z,10.13
2019-04-14T02:41:18.450Z,9.60
2019-04-14T02:44:01.678Z,9.33
2019-04-14T02:48:44.928Z,10.00
2019-04-14T02:51:12.497Z,9.70
2019-04-14T02:53:44.351Z,9.70
2019-04-14T02:56:16.116Z,9.60
2019-04-14T02:58:48.328Z,10.20
2019-04-14T03:01:19.783Z,9.50
2019-04-14T03:03:41.685Z,9.50
2019-04-14T03:08:55.072Z,10.30
2019-04-14T03:11:09.342Z,10.30
2019-04-14T03:14:00.509Z,9.73
2019-04-14T03:16:24.066Z,9.33
2019-04-14T03:19:03.961Z,9.80
2019-04-14T03:21:21.179Z,9.53
2019-04-14T03:24:12.746Z,9.37
2019-04-14T03:26:44.278Z,9.67
2019-04-14T03:29:29.334Z,10.03
2019-04-14T03:34:43.292Z,9.43
2019-04-14T03:39:27.247Z,10.50
2019-04-14T03:41:54.927Z,10.27
2019-04-14T03:44:30.770Z,10.13
2019-04-14T03:47:02.965Z,10.17
2019-04-14T03:51:59.590Z,10.47
2019-04-14T03:54:15.638Z,10.03
2019-04-14T03:56:51.206Z,10.87
2019-04-14T03:59:20.198Z,10.20
2019-04-14T04:01:49.948Z,10.60
2019-04-14T04:04:18.722Z,10.13
2019-04-14T04:06:48.465Z,11.30
2019-04-14T04:09:17.152Z,10.70
2019-04-14T04:11:45.729Z,10.27
2019-04-14T04:14:14.260Z,10.13
2019-04-14T04:16:44.403Z,10.73
2019-04-14T04:19:18.591Z,9.77
2019-04-14T04:21:49.052Z,10.97
2019-04-14T04:24:35.166Z,10.57
2019-04-14T04:27:08.978Z,9.27
2019-04-14T04:29:39.791Z,9.87
2019-04-14T04:32:10.118Z,11.03
2019-04-14T04:34:40.330Z,9.20
2019-04-14T04:37:10.431Z,9.83
2019-04-14T04:39:41.274Z,10.37
2019-04-14T04:42:11.150Z,10.53
2019-04-14T04:44:40.008Z,10.90
2019-04-14T04:47:08.416Z,9.73
2019-04-14T04:49:36.871Z,11.20
2019-04-14T04:52:06.290Z,10.60
2019-04-14T04:54:34.950Z,10.47
2019-04-14T04:57:04.521Z,10.90
2019-04-14T04:59:34.317Z,11.23
2019-04-14T05:02:02.872Z,11.17
2019-04-14T05:04:32.956Z,10.87
2019-04-14T05:07:03.376Z,10.63
2019-04-14T05:09:36.982Z,10.23
2019-04-14T05:12:21.712Z,11.30
2019-04-14T05:15:01.116Z,11.27
2019-04-14T05:17:47.300Z,11.03
2019-04-14T05:20:16.198Z,11.40
2019-04-14T05:22:44.675Z,11.37
2019-04-14T05:25:13.180Z,10.47
2019-04-14T05:27:42.979Z,10.47
2019-04-14T05:30:11.706Z,12.00
2019-04-14T05:32:41.251Z,11.13
2019-04-14T05:35:10.279Z,11.67
2019-04-14T05:37:39.970Z,12.27
2019-04-14T05:40:10.296Z,11.97
2019-04-14T05:42:40.711Z,12.20
2019-04-14T05:45:11.171Z,11.53
2019-04-14T05:47:41.387Z,12.30
2019-04-14T05:50:11.564Z,12.03
2019-04-14T05:52:40.551Z,13.00
2019-04-14T05:55:09.612Z,11.00
2019-04-14T05:57:38.059Z,11.70
2019-04-14T06:00:10.431Z,11.80
2019-04-14T06:02:39.939Z,11.53
2019-04-14T06:05:10.051Z,11.47
2019-04-14T06:07:39.548Z,12.70
2019-04-14T06:10:08.907Z,12.83
2019-04-14T06:12:37.650Z,12.63
2019-04-14T06:15:07.387Z,12.40
2019-04-14T06:17:35.864Z,12.57
2019-04-14T06:20:05.373Z,12.67
2019-04-14T06:22:33.964Z,13.27
2019-04-14T06:25:02.566Z,12.00
2019-04-14T06:27:31.017Z,12.10
2019-04-14T06:30:01.201Z,13.43
2019-04-14T06:32:31.263Z,12.90
2019-04-14T06:35:19.677Z,12.23
2019-04-14T06:37:49.742Z,12.23
2019-04-14T06:40:19.072Z,13.50
2019-04-14T06:42:47.514Z,12.47
2019-04-14T06:45:15.964Z,13.07
2019-04-14T06:47:44.419Z,12.67
2019-04-14T06:50:12.969Z,12.30
2019-04-14T06:52:41.413Z,13.53
2019-04-14T06:55:10.446Z,13.27
2019-04-14T06:57:38.900Z,13.03
2019-04-14T07:00:08.050Z,13.73
2019-04-14T07:02:36.489Z,13.40
2019-04-14T07:05:06.369Z,12.80
2019-04-14T07:07:34.852Z,12.37
2019-04-14T07:10:03.673Z,12.43
2019-04-14T07:12:32.215Z,11.80
2019-04-14T07:15:00.930Z,12.73
2019-04-14T07:17:29.964Z,12.23
2019-04-14T07:20:02.166Z,12.60
2019-04-14T07:22:28.648Z,13.03
2019-04-14T07:24:57.288Z,12.57
2019-04-14T07:27:25.795Z,12.73
2019-04-14T07:30:05.130Z,12.97
2019-04-14T07:32:41.046Z,13.60
2019-04-14T07:35:11.553Z,13.50
2019-04-14T07:37:41.692Z,13.20
2019-04-14T07:40:11.895Z,13.67
2019-04-14T07:42:42.472Z,13.70
2019-04-14T07:45:18.644Z,13.20
2019-04-14T07:47:51.166Z,12.63
2019-04-14T07:50:23.702Z,14.50
2019-04-14T07:53:05.671Z,14.47
2019-04-14T07:55:44.688Z,14.03
2019-04-14T07:58:31.194Z,12.97
2019-04-14T08:01:01.335Z,14.20
2019-04-14T08:03:40.481Z,13.70
2019-04-14T08:06:08.950Z,14.10
2019-04-14T08:08:37.411Z,13.33
2019-04-14T08:11:05.933Z,12.83
2019-04-14T08:13:34.368Z,13.73
2019-04-14T08:16:02.848Z,14.17
2019-04-14T08:18:31.788Z,13.23
2019-04-14T08:21:00.262Z,14.00
2019-04-14T08:23:28.917Z,14.07
2019-04-14T08:25:57.382Z,14.33
2019-04-14T08:28:25.827Z,12.97
2019-04-14T08:30:54.331Z,13.70
2019-04-14T08:33:22.872Z,13.90
2019-04-14T08:35:51.315Z,14.37
2019-04-14T08:38:19.748Z,15.90
2019-04-14T08:40:48.322Z,16.93
2019-04-14T08:43:21.382Z,15.93
2019-04-14T08:45:53.935Z,15.00
2019-04-14T08:48:39.838Z,15.63
2019-04-14T08:51:13.204Z,14.67
2019-04-14T08:53:52.448Z,16.37
2019-04-14T08:56:35.353Z,15.00
2019-04-14T08:59:17.524Z,15.73
2019-04-14T09:01:57.072Z,16.37
2019-04-14T09:04:29.789Z,15.47
2019-04-14T09:06:59.867Z,16.33
2019-04-14T09:09:35.672Z,16.40
2019-04-14T09:12:15.475Z,16.40
2019-04-14T09:14:38.793Z,17.13
2019-04-14T09:17:07.285Z,16.23
2019-04-14T09:19:35.752Z,17.00
2019-04-14T09:22:04.291Z,16.33
2019-04-14T09:24:32.755Z,17.47
2019-04-14T09:27:01.287Z,17.13
2019-04-14T09:29:29.765Z,16.30
2019-04-14T09:31:58.687Z,17.83
2019-04-14T09:34:28.671Z,17.47
2019-04-14T09:36:57.163Z,17.33
2019-04-14T09:39:25.600Z,17.27
2019-04-14T09:41:54.087Z,16.23
2019-04-14T09:44:22.745Z,16.07
2019-04-14T09:46:51.194Z,16.70
2019-04-14T09:49:19.656Z,18.90
2019-04-14T09:51:48.145Z,17.27
2019-04-14T09:54:16.587Z,16.93
2019-04-14T09:56:45.089Z,17.90
2019-04-14T09:59:14.425Z,18.43
2019-04-14T10:01:42.964Z,18.03
2019-04-14T10:04:11.658Z,17.30
2019-04-14T10:06:40.999Z,17.63
2019-04-14T10:09:09.912Z,18.97
2019-04-14T10:11:48.046Z,18.47
2019-04-14T10:14:08.695Z,17.23
2019-04-14T10:16:37.290Z,17.50
2019-04-14T10:19:05.843Z,17.80
2019-04-14T10:21:34.297Z,16.07
2019-04-14T10:24:02.771Z,13.80
2019-04-14T10:26:31.278Z,14.87
2019-04-14T10:28:59.719Z,14.20
2019-04-14T10:31:28.172Z,15.00
2019-04-14T10:33:56.631Z,16.00
2019-04-14T10:36:25.114Z,15.60
2019-04-14T10:38:54.190Z,15.60
2019-04-14T10:41:22.625Z,16.63
2019-04-14T10:43:51.075Z,16.03
2019-04-14T10:46:19.541Z,15.00
2019-04-14T10:48:48.043Z,16.83
2019-04-14T10:51:29.212Z,16.13
2019-04-14T10:53:47.269Z,16.17
2019-04-14T10:56:15.734Z,15.67
2019-04-14T10:58:44.930Z,13.77
2019-04-14T11:01:13.489Z,15.00
2019-04-14T11:03:41.975Z,15.33
2019-04-14T11:06:12.092Z,15.47
2019-04-14T11:08:40.595Z,15.80
2019-04-14T11:11:09.100Z,14.40
2019-04-14T11:13:37.537Z,13.30
2019-04-14T11:16:06.079Z,13.50
2019-04-14T11:18:34.587Z,13.03
2019-04-14T11:21:03.062Z,13.33
2019-04-14T11:23:33.833Z,13.43
2019-04-14T11:26:02.372Z,13.60
2019-04-14T11:28:30.936Z,12.90
2019-04-14T11:30:59.379Z,14.50
2019-04-14T11:33:32.488Z,15.13
2019-04-14T11:36:18.964Z,13.63
2019-04-14T11:38:49.050Z,16.07
2019-04-14T11:41:19.171Z,13.60
2019-04-14T11:43:49.173Z,13.50
2019-04-14T11:46:17.726Z,13.63
2019-04-14T11:48:46.413Z,14.03
2019-04-14T11:51:15.038Z,14.37
2019-04-14T11:53:43.634Z,12.23
2019-04-14T11:56:12.169Z,11.70
2019-04-14T11:58:40.664Z,11.03
2019-04-14T12:01:13.494Z,11.97
2019-04-14T12:03:43.600Z,11.40
2019-04-14T12:06:19.551Z,11.33
2019-04-14T12:08:52.480Z,10.83
2019-04-14T12:11:20.982Z,11.13
2019-04-14T12:13:53.481Z,11.03
2019-04-14T12:16:22.017Z,10.10
2019-04-14T12:18:50.517Z,10.00
2019-04-14T12:21:18.976Z,9.87
2019-04-14T12:23:47.444Z,10.50
2019-04-14T12:26:18.195Z,9.40
2019-04-14T12:28:49.473Z,10.07
2019-04-14T12:31:26.529Z,9.23
2019-04-14T12:33:55.090Z,8.87
2019-04-14T12:36:23.592Z,9.00
2019-04-14T12:38:52.052Z,8.13
2019-04-14T12:41:25.043Z,9.57
2019-04-14T12:43:58.133Z,9.30
2019-04-14T12:46:28.283Z,9.40
2019-04-14T12:48:58.379Z,9.80
2019-04-14T12:51:37.412Z,9.70
2019-04-14T12:54:06.057Z,10.40
2019-04-14T12:56:34.604Z,9.97
2019-04-14T12:59:04.705Z,9.30
2019-04-14T13:01:37.686Z,10.10
2019-04-14T13:04:06.150Z,9.73
2019-04-14T13:06:34.660Z,10.60
2019-04-14T13:09:03.892Z,10.73
2019-04-14T13:11:32.473Z,10.53
2019-04-14T13:14:01.313Z,10.63
2019-04-14T13:16:29.770Z,10.87
2019-04-14T13:18:58.505Z,11.10
2019-04-14T13:21:27.069Z,11.77
2019-04-14T13:23:55.693Z,12.27
2019-04-14T13:26:25.310Z,11.07
2019-04-14T13:28:53.821Z,11.37
2019-04-14T13:31:22.627Z,11.40
2019-04-14T13:33:51.109Z,12.17
2019-04-14T13:36:19.680Z,13.03
2019-04-14T13:38:48.669Z,12.00
2019-04-14T13:41:17.226Z,12.43
2019-04-14T13:43:45.929Z,12.53
2019-04-14T13:46:14.378Z,12.63
2019-04-14T13:48:43.061Z,11.77
2019-04-14T13:51:11.570Z,14.10
2019-04-14T13:53:40.058Z,12.67
2019-04-14T13:56:08.538Z,13.70
2019-04-14T13:58:39.201Z,14.23
2019-04-14T14:01:07.381Z,13.70
2019-04-14T14:03:35.879Z,14.53
2019-04-14T14:06:04.709Z,13.70
2019-04-14T14:08:33.223Z,13.27
2019-04-14T14:11:12.566Z,14.60
2019-04-14T14:13:48.476Z,14.87
2019-04-14T14:16:24.744Z,15.03
2019-04-14T14:19:00.893Z,15.97
2019-04-14T14:21:40.166Z,17.23
2019-04-14T14:24:28.708Z,15.77
2019-04-14T14:27:01.977Z,16.33
2019-04-14T14:29:31.709Z,17.17
2019-04-14T14:32:02.224Z,16.70
2019-04-14T14:34:30.759Z,17.10
2019-04-14T14:36:59.527Z,17.50
2019-04-14T14:39:28.933Z,17.20
2019-04-14T14:41:58.020Z,17.73
2019-04-14T14:44:31.294Z,17.60
2019-04-14T14:47:16.673Z,18.60
2019-04-14T14:49:59.148Z,18.13
2019-04-14T14:52:27.894Z,19.80
2019-04-14T14:54:56.451Z,19.43
2019-04-14T14:57:24.990Z,18.67
2019-04-14T14:59:53.465Z,20.10
2019-04-14T15:02:22.105Z,19.33
2019-04-14T15:04:50.566Z,20.17
2019-04-14T15:07:19.840Z,18.33
2019-04-14T15:09:48.276Z,20.30
2019-04-14T15:12:16.781Z,21.07
2019-04-14T15:14:45.335Z,20.90
2019-04-14T15:17:13.875Z,21.33
2019-04-14T15:19:42.498Z,21.03
2019-04-14T15:22:10.947Z,20.67
2019-04-14T15:24:39.437Z,19.97
2019-04-14T15:27:07.880Z,21.63
2019-04-14T15:29:36.433Z,20.97
2019-04-14T15:32:05.071Z,20.93
2019-04-14T15:34:34.472Z,22.90
2019-04-14T15:37:02.987Z,21.37
2019-04-14T15:39:31.546Z,21.70
2019-04-14T15:42:00.063Z,23.00
2019-04-14T15:44:28.527Z,22.33
2019-04-14T15:46:56.970Z,21.50
2019-04-14T15:49:25.465Z,23.23
2019-04-14T15:51:53.933Z,22.20
2019-04-14T15:54:25.239Z,22.23
2019-04-14T15:56:57.094Z,21.83
2019-04-14T15:59:43.599Z,21.33
2019-04-14T16:02:19.457Z,21.80
2019-04-14T16:05:04.609Z,21.73
2019-04-14T16:07:34.686Z,21.70
2019-04-14T16:10:12.213Z,22.33
2019-04-14T16:12:48.406Z,22.03
2019-04-14T16:15:24.448Z,21.23
2019-04-14T16:17:54.575Z,22.50
2019-04-14T16:20:30.402Z,21.20
2019-04-14T16:22:59.313Z,20.83
2019-04-14T16:25:35.575Z,21.07
2019-04-14T16:28:06.124Z,21.03
2019-04-14T16:30:54.211Z,21.27
2019-04-14T16:33:26.417Z,21.57
2019-04-14T16:35:55.568Z,22.00
2019-04-14T16:38:24.020Z,21.83
2019-04-14T16:40:52.705Z,23.23
2019-04-14T16:43:21.240Z,21.20
2019-04-14T16:45:49.756Z,20.17
2019-04-14T16:48:21.301Z,21.00
2019-04-14T16:50:49.850Z,21.30
2019-04-14T16:53:20.712Z,22.07
2019-04-14T16:56:07.162Z,21.53
2019-04-14T16:58:37.339Z,22.47
2019-04-14T17:01:07.587Z,22.50
2019-04-14T17:03:36.211Z,21.33
2019-04-14T17:06:04.734Z,21.40
2019-04-14T17:08:33.175Z,20.90
2019-04-14T17:11:02.343Z,22.23
2019-04-14T17:13:32.495Z,21.57
2019-04-14T17:16:11.608Z,21.03
2019-04-14T17:18:44.333Z,21.87
2019-04-14T17:21:30.530Z,21.13
2019-04-14T17:24:16.452Z,21.60
2019-04-14T17:26:44.693Z,19.00
2019-04-14T17:29:17.732Z,21.23
2019-04-14T17:32:04.549Z,19.67
2019-04-14T17:34:52.994Z,20.10
2019-04-14T17:37:29.102Z,20.67
2019-04-14T17:40:08.490Z,19.57
2019-04-14T17:42:54.939Z,21.13
2019-04-14T17:45:30.716Z,20.53
2019-04-14T17:48:00.814Z,20.47
2019-04-14T17:50:40.466Z,21.73
2019-04-14T17:53:12.005Z,21.53
2019-04-14T17:55:50.012Z,21.83
2019-04-14T17:58:20.182Z,21.53
2019-04-14T18:00:50.321Z,22.30
2019-04-14T18:03:32.737Z,21.53
2019-04-14T18:06:05.338Z,21.70
2019-04-14T18:08:47.552Z,23.33
2019-04-14T18:11:36.100Z,22.60
2019-04-14T18:14:12.173Z,23.30
2019-04-14T18:16:59.039Z,23.47
2019-04-14T18:19:29.399Z,21.67
2019-04-14T18:21:57.894Z,22.23
2019-04-14T18:24:26.650Z,22.50
2019-04-14T18:26:55.241Z,22.37
2019-04-14T18:29:37.240Z,23.10
2019-04-14T18:32:11.331Z,22.57
2019-04-14T18:34:47.902Z,21.10
2019-04-14T18:37:34.173Z,21.27
2019-04-14T18:40:07.413Z,19.83
2019-04-14T18:42:37.649Z,20.70
2019-04-14T18:45:15.460Z,21.77
2019-04-14T18:47:45.541Z,20.93
2019-04-14T18:50:15.881Z,20.60
2019-04-14T18:53:01.335Z,20.37
2019-04-14T18:55:47.892Z,20.17
2019-04-14T18:58:18.086Z,19.00
2019-04-14T19:01:03.359Z,20.57
2019-04-14T19:03:33.076Z,20.77
2019-04-14T19:06:01.537Z,21.30
2019-04-14T19:08:30.117Z,21.30
2019-04-14T19:11:00.315Z,21.10
2019-04-14T19:13:33.732Z,20.37
2019-04-14T19:16:09.617Z,21.00
2019-04-14T19:18:39.792Z,20.27
2019-04-14T19:21:09.884Z,21.13
2019-04-14T19:23:38.438Z,21.93
2019-04-14T19:26:06.894Z,22.10
2019-04-14T19:28:35.475Z,20.83
2019-04-14T19:31:04.092Z,20.97
2019-04-14T19:33:32.562Z,20.50
2019-04-14T19:36:01.037Z,20.53
2019-04-14T19:38:31.074Z,20.73
2019-04-14T19:41:00.281Z,21.37
2019-04-14T19:43:28.839Z,21.03
2019-04-14T19:45:58.811Z,20.77
2019-04-14T19:48:27.427Z,22.30
2019-04-14T19:50:56.051Z,21.60
2019-04-14T19:53:24.757Z,21.17
2019-04-14T19:55:53.354Z,22.40
2019-04-14T19:58:22.302Z,20.97
2019-04-14T20:00:51.025Z,20.83
2019-04-14T20:03:19.531Z,22.33
2019-04-14T20:05:47.981Z,22.67
2019-04-14T20:08:16.680Z,24.33
2019-04-14T20:10:45.283Z,24.83
2019-04-14T20:13:15.473Z,22.83
2019-04-14T20:15:51.690Z,24.00
2019-04-14T20:18:23.196Z,24.07
2019-04-14T20:21:08.013Z,23.77
2019-04-14T20:23:38.081Z,22.90
2019-04-14T20:26:23.248Z,24.20
2019-04-14T20:28:59.110Z,22.90
2019-04-14T20:31:38.064Z,24.93
2019-04-14T20:34:06.606Z,22.67
2019-04-14T20:36:35.292Z,23.80
2019-04-14T20:39:05.343Z,24.43
2019-04-14T20:41:33.969Z,23.47
2019-04-14T20:44:02.524Z,22.77
2019-04-14T20:46:31.165Z,25.40
2019-04-14T20:48:59.711Z,23.53
2019-04-14T20:51:29.580Z,24.43
2019-04-14T20:53:58.875Z,24.90
2019-04-14T20:56:27.458Z,24.80
2019-04-14T20:58:55.989Z,25.43
2019-04-14T21:01:26.051Z,24.43
2019-04-14T21:04:08.665Z,23.90
2019-04-14T21:06:38.831Z,25.33
2019-04-14T21:09:15.436Z,25.53
2019-04-14T21:11:45.656Z,25.27
2019-04-14T21:14:19.304Z,24.53
2019-04-14T21:16:49.382Z,25.03
2019-04-14T21:19:19.489Z,24.80
2019-04-14T21:22:04.833Z,25.60
2019-04-14T21:24:46.628Z,23.43
2019-04-14T21:27:16.773Z,24.87
2019-04-14T21:30:02.134Z,24.67
2019-04-14T21:32:50.416Z,25.07
2019-04-14T21:35:23.370Z,26.00
2019-04-14T21:38:12.685Z,24.90
2019-04-14T21:40:55.228Z,25.30
2019-04-14T21:43:24.572Z,25.07
2019-04-14T21:45:53.007Z,25.47
2019-04-14T21:48:21.467Z,24.33
2019-04-14T21:50:49.923Z,23.93
2019-04-14T21:53:18.381Z,23.77
2019-04-14T21:55:46.860Z,23.63
2019-04-14T21:58:19.644Z,21.93
2019-04-14T22:01:11.559Z,23.80
2019-04-14T22:03:56.478Z,22.63
2019-04-14T22:06:26.549Z,22.27
2019-04-14T22:09:02.839Z,22.13
2019-04-14T22:11:31.446Z,23.23
2019-04-14T22:13:59.899Z,23.17
2019-04-14T22:16:28.484Z,22.97
2019-04-14T22:18:56.928Z,21.60
2019-04-14T22:21:25.406Z,21.07
2019-04-14T22:24:01.398Z,20.80
2019-04-14T22:26:26.312Z,21.67
2019-04-14T22:28:54.314Z,21.60
2019-04-14T22:31:22.932Z,20.17
2019-04-14T22:33:51.374Z,21.20
2019-04-14T22:36:19.839Z,20.20
2019-04-14T22:38:48.372Z,20.53
2019-04-14T22:41:16.922Z,20.90
2019-04-14T22:43:45.440Z,20.13
2019-04-14T22:46:13.945Z,17.33
2019-04-14T22:48:42.427Z,19.23
2019-04-14T22:51:10.861Z,20.03
2019-04-14T22:53:39.351Z,17.80
2019-04-14T22:56:07.809Z,18.83
2019-04-14T22:58:36.311Z,19.43
2019-04-14T23:01:22.171Z,17.40
2019-04-14T23:03:52.329Z,17.27
2019-04-14T23:06:24.894Z,16.73
2019-04-14T23:08:54.992Z,17.93
2019-04-14T23:11:25.847Z,19.03
2019-04-14T23:13:58.633Z,17.83
2019-04-14T23:16:37.746Z,18.13
2019-04-14T23:19:07.829Z,16.87
2019-04-14T23:21:40.922Z,16.13
2019-04-14T23:24:11.043Z,15.60
2019-04-14T23:26:51.781Z,17.03
2019-04-14T23:29:09.748Z,14.50
2019-04-14T23:31:38.299Z,15.63
2019-04-14T23:34:06.801Z,14.50
2019-04-14T23:36:35.263Z,16.30
2019-04-14T23:39:06.126Z,14.93
2019-04-14T23:41:34.561Z,15.63
2019-04-14T23:44:03.151Z,14.13
2019-04-14T23:46:31.583Z,13.97
2019-04-14T23:49:00.130Z,14.10
2019-04-14T23:51:28.592Z,15.07
2019-04-14T23:53:59.280Z,14.00
2019-04-14T23:56:27.801Z,13.40
2019-04-14T23:58:56.612Z,14.07
